createdAt,value
2022-08-18T00:02:17.742Z,17.00
2022-08-18T00:04:49.206Z,16.80
2022-08-18T00:07:27.784Z,17.50
2022-08-18T00:09:54.769Z,17.50
2022-08-18T00:12:33.642Z,18.20
2022-08-18T00:15:04.436Z,18.60
2022-08-18T00:17:34.633Z,19.50
2022-08-18T00:20:01.786Z,18.20
2022-08-18T00:22:28.841Z,18.30
2022-08-18T00:24:57.487Z,19.00
2022-08-18T00:27:29.813Z,18.30
2022-08-18T00:29:58.747Z,18.90
2022-08-18T00:32:34.470Z,19.70
2022-08-18T00:35:06.879Z,18.70
2022-08-18T00:37:33.898Z,20.70
2022-08-18T00:40:00.918Z,18.90
2022-08-18T00:42:31.040Z,19.30
2022-08-18T00:45:03.481Z,19.30
2022-08-18T00:47:41.421Z,18.60
2022-08-18T00:50:37.801Z,17.50
2022-08-18T00:53:36.085Z,18.90
2022-08-18T00:56:10.930Z,17.90
2022-08-18T00:59:03.059Z,17.20
2022-08-18T01:01:31.610Z,17.10
2022-08-18T01:04:21.744Z,18.90
2022-08-18T01:06:52.697Z,18.40
2022-08-18T01:09:19.538Z,18.70
2022-08-18T01:11:46.490Z,18.20
2022-08-18T01:14:16.111Z,18.10
2022-08-18T01:17:02.195Z,18.90
2022-08-18T01:19:47.683Z,17.40
2022-08-18T01:22:20.864Z,17.80
2022-08-18T01:25:06.466Z,18.50
2022-08-18T01:27:34.443Z,19.10
2022-08-18T01:30:09.980Z,19.50
2022-08-18T01:32:37.297Z,19.10
2022-08-18T01:35:04.951Z,19.50
2022-08-18T01:37:31.874Z,19.20
2022-08-18T01:41:11.177Z,19.50
2022-08-18T01:42:46.864Z,18.00
2022-08-18T01:45:14.845Z,18.20
2022-08-18T01:47:47.504Z,17.80
2022-08-18T01:50:25.533Z,17.30
2022-08-18T01:52:53.790Z,17.80
2022-08-18T01:55:21.277Z,18.30
2022-08-18T01:57:48.297Z,19.10
2022-08-18T02:00:16.717Z,18.40
2022-08-18T02:02:43.867Z,18.40
2022-08-18T02:05:23.518Z,19.30
2022-08-18T02:07:54.511Z,19.10
2022-08-18T02:10:21.711Z,19.60
2022-08-18T02:12:48.659Z,19.70
2022-08-18T02:15:15.824Z,20.90
2022-08-18T02:17:44.211Z,20.50
2022-08-18T02:20:14.919Z,20.50
2022-08-18T02:22:42.196Z,19.80
2022-08-18T02:25:10.180Z,20.60
2022-08-18T02:31:14.738Z,21.00
2022-08-18T02:33:46.921Z,21.40
2022-08-18T02:36:20.727Z,22.10
2022-08-18T02:38:56.621Z,22.50
2022-08-18T02:41:29.383Z,22.10
2022-08-18T02:43:58.274Z,22.40
2022-08-18T02:46:30.234Z,21.90
2022-08-18T02:48:59.974Z,22.90
2022-08-18T02:51:27.103Z,22.60
2022-08-18T02:53:54.439Z,23.30
2022-08-18T02:56:40.303Z,23.40
2022-08-18T02:59:20.075Z,22.80
2022-08-18T03:01:49.168Z,22.50
2022-08-18T03:04:22.897Z,22.30
2022-08-18T03:06:52.714Z,24.20
2022-08-18T03:09:19.866Z,21.70
2022-08-18T03:11:46.917Z,24.50
2022-08-18T03:14:14.713Z,23.90
2022-08-18T03:16:52.849Z,24.60
2022-08-18T03:19:21.392Z,25.80
2022-08-18T03:21:48.642Z,25.50
2022-08-18T03:27:56.705Z,24.60
2022-08-18T03:30:24.069Z,24.90
2022-08-18T03:32:51.125Z,24.20
2022-08-18T03:35:18.391Z,24.00
2022-08-18T03:37:45.386Z,23.70
2022-08-18T03:40:12.650Z,25.40
2022-08-18T03:42:39.755Z,24.80
2022-08-18T03:45:17.685Z,23.30
2022-08-18T03:47:46.178Z,24.70
2022-08-18T03:50:14.168Z,23.10
2022-08-18T03:52:41.952Z,25.10
2022-08-18T03:55:09.763Z,24.20
2022-08-18T03:57:39.296Z,24.50
2022-08-18T04:00:07.143Z,25.20
2022-08-18T04:02:34.184Z,26.40
2022-08-18T04:05:01.336Z,26.10
2022-08-18T04:07:32.341Z,25.00
2022-08-18T04:09:59.332Z,26.90
2022-08-18T04:12:26.599Z,25.90
2022-08-18T04:14:53.659Z,26.20
2022-08-18T04:17:25.314Z,28.90
2022-08-18T04:19:55.940Z,26.10
2022-08-18T04:24:50.826Z,26.10
2022-08-18T04:27:18.964Z,26.10
2022-08-18T04:29:46.326Z,27.00
2022-08-18T04:32:13.379Z,26.50
2022-08-18T04:34:40.531Z,25.00
2022-08-18T04:37:09.906Z,28.10
2022-08-18T04:39:37.827Z,26.10
2022-08-18T04:42:06.310Z,26.30
2022-08-18T04:44:34.582Z,26.70
2022-08-18T04:47:02.055Z,26.30
2022-08-18T04:49:30.530Z,24.80
2022-08-18T04:52:34.205Z,24.80
2022-08-18T04:55:04.328Z,24.40
2022-08-18T04:57:35.103Z,25.40
2022-08-18T05:00:03.052Z,25.00
2022-08-18T05:02:33.244Z,25.00
2022-08-18T05:05:03.508Z,24.20
2022-08-18T05:07:31.110Z,24.00
2022-08-18T05:09:58.267Z,24.60
2022-08-18T05:12:25.905Z,22.50
2022-08-18T05:14:54.109Z,22.60
2022-08-18T05:17:21.060Z,22.80
2022-08-18T05:19:49.818Z,22.80
2022-08-18T05:22:24.243Z,23.50
2022-08-18T05:24:55.810Z,24.00
2022-08-18T05:27:22.771Z,22.80
2022-08-18T05:29:51.702Z,22.10
2022-08-18T05:32:42.573Z,22.00
2022-08-18T05:35:12.486Z,20.20
2022-08-18T05:38:08.321Z,19.30
2022-08-18T05:40:35.473Z,20.30
2022-08-18T05:43:02.612Z,18.70
2022-08-18T05:45:29.673Z,19.10
2022-08-18T05:48:02.377Z,16.10
2022-08-18T05:50:30.078Z,18.00
2022-08-18T05:53:12.504Z,16.70
2022-08-18T05:55:59.846Z,16.00
2022-08-18T05:58:32.956Z,17.10
2022-08-18T06:01:24.661Z,15.80
2022-08-18T06:04:16.388Z,16.50
2022-08-18T06:06:47.464Z,16.10
2022-08-18T06:09:44.485Z,14.90
2022-08-18T06:12:47.122Z,16.00
2022-08-18T06:15:14.751Z,15.20
2022-08-18T06:18:15.980Z,15.80
2022-08-18T06:20:53.882Z,15.60
2022-08-18T06:23:28.193Z,13.50
2022-08-18T06:26:09.689Z,13.90
2022-08-18T06:29:06.541Z,12.10
2022-08-18T06:31:36.550Z,12.00
2022-08-18T06:34:14.347Z,11.70
2022-08-18T06:37:20.511Z,11.80
2022-08-18T06:39:52.534Z,11.40
2022-08-18T06:42:30.708Z,11.10
2022-08-18T06:45:01.216Z,11.30
2022-08-18T06:47:53.237Z,11.00
2022-08-18T06:50:44.778Z,10.50
2022-08-18T06:53:26.737Z,10.70
2022-08-18T06:55:54.030Z,10.70
2022-08-18T06:58:30.713Z,10.50
2022-08-18T07:01:02.949Z,11.30
2022-08-18T07:03:39.644Z,10.30
2022-08-18T07:06:11.628Z,9.80
2022-08-18T07:08:43.458Z,10.50
2022-08-18T07:11:25.657Z,11.00
2022-08-18T07:14:21.638Z,10.40
2022-08-18T07:16:58.739Z,10.20
2022-08-18T07:19:29.395Z,9.30
2022-08-18T07:22:05.656Z,9.50
2022-08-18T07:24:34.580Z,9.80
2022-08-18T07:27:03.130Z,9.20
2022-08-18T07:29:32.861Z,8.50
2022-08-18T07:32:21.169Z,8.80
2022-08-18T07:34:55.204Z,7.70
2022-08-18T07:37:51.199Z,8.00
2022-08-18T07:40:31.593Z,7.60
2022-08-18T07:43:48.095Z,7.30
2022-08-18T07:46:23.643Z,7.40
2022-08-18T07:48:52.270Z,7.40
2022-08-18T07:51:23.894Z,7.30
2022-08-18T07:54:54.289Z,7.30
2022-08-18T07:58:00.924Z,7.10
2022-08-18T08:01:00.213Z,7.00
2022-08-18T08:03:48.881Z,6.80
2022-08-18T08:07:00.567Z,6.90
2022-08-18T08:09:56.302Z,6.40
2022-08-18T08:12:32.364Z,7.00
2022-08-18T08:15:17.953Z,6.80
2022-08-18T08:18:36.718Z,7.10
2022-08-18T08:21:11.006Z,6.50
2022-08-18T08:24:01.232Z,7.20
2022-08-18T08:26:47.685Z,7.80
2022-08-18T08:29:41.413Z,7.50
2022-08-18T08:32:16.147Z,7.70
2022-08-18T08:34:57.535Z,7.20
2022-08-18T08:37:30.576Z,6.90
2022-08-18T08:40:38.225Z,6.70
2022-08-18T08:43:16.146Z,6.40
2022-08-18T08:46:00.589Z,6.90
2022-08-18T08:48:29.812Z,6.80
2022-08-18T08:51:01.619Z,7.10
2022-08-18T08:53:33.204Z,6.70
2022-08-18T08:56:04.155Z,7.30
2022-08-18T08:58:37.237Z,7.30
2022-08-18T09:01:04.286Z,7.20
2022-08-18T09:03:45.778Z,7.50
2022-08-18T09:06:35.256Z,7.30
2022-08-18T09:09:18.180Z,9.20
2022-08-18T09:12:12.163Z,8.90
2022-08-18T09:15:05.528Z,8.20
2022-08-18T09:17:41.798Z,11.00
2022-08-18T09:20:40.698Z,9.00
2022-08-18T09:23:28.846Z,7.70
2022-08-18T09:25:58.631Z,7.90
2022-08-18T09:28:28.570Z,7.90
2022-08-18T09:31:08.859Z,8.10
2022-08-18T09:33:49.395Z,7.90
2022-08-18T09:36:30.096Z,9.00
2022-08-18T09:39:23.228Z,9.40
2022-08-18T09:41:55.795Z,9.40
2022-08-18T09:44:48.863Z,9.20
2022-08-18T09:47:22.398Z,8.50
2022-08-18T09:50:26.755Z,8.70
2022-08-18T09:52:57.803Z,7.80
2022-08-18T09:55:24.970Z,7.90
2022-08-18T09:58:15.265Z,6.70
2022-08-18T10:00:44.258Z,6.50
2022-08-18T10:03:13.734Z,6.70
2022-08-18T10:05:41.736Z,6.60
2022-08-18T10:08:09.031Z,6.50
2022-08-18T10:11:00.400Z,6.80
2022-08-18T10:13:51.213Z,7.00
2022-08-18T10:16:23.892Z,7.40
2022-08-18T10:19:00.261Z,6.80
2022-08-18T10:21:31.487Z,6.00
2022-08-18T10:24:29.930Z,6.70
2022-08-18T10:26:54.530Z,6.60
2022-08-18T10:29:32.284Z,6.60
2022-08-18T10:32:00.063Z,6.50
2022-08-18T10:34:52.458Z,6.60
2022-08-18T10:37:44.935Z,6.70
2022-08-18T10:40:14.749Z,6.70
2022-08-18T10:42:45.321Z,7.50
2022-08-18T10:45:31.015Z,6.20
2022-08-18T10:48:19.304Z,6.00
2022-08-18T10:50:58.880Z,6.30
2022-08-18T10:53:43.969Z,6.30
2022-08-18T10:56:34.404Z,6.30
2022-08-18T10:59:19.895Z,11.20
2022-08-18T11:02:27.742Z,8.70
2022-08-18T11:04:58.934Z,9.00
2022-08-18T11:07:30.916Z,8.00
2022-08-18T11:10:28.063Z,7.60
2022-08-18T11:13:13.341Z,7.00
2022-08-18T11:15:53.230Z,6.80
2022-08-18T11:18:30.079Z,7.60
2022-08-18T11:21:41.825Z,8.60
2022-08-18T11:24:14.072Z,9.60
2022-08-18T11:26:56.153Z,10.00
2022-08-18T11:29:24.732Z,10.10
2022-08-18T11:31:54.915Z,9.30
2022-08-18T11:34:39.099Z,7.20
2022-08-18T11:37:51.848Z,6.50
2022-08-18T11:43:13.699Z,6.80
2022-08-18T11:45:48.236Z,6.80
2022-08-18T11:48:15.147Z,6.80
2022-08-18T11:53:44.256Z,7.70
2022-08-18T11:56:14.457Z,7.40
2022-08-18T11:58:50.460Z,7.30
2022-08-18T12:01:55.087Z,7.60
2022-08-18T12:04:26.342Z,7.60
2022-08-18T12:06:56.562Z,8.60
2022-08-18T12:12:28.557Z,9.10
2022-08-18T12:15:22.618Z,9.20
2022-08-18T12:17:53.183Z,9.90
2022-08-18T12:20:21.147Z,9.80
2022-08-18T12:22:49.729Z,10.30
2022-08-18T12:25:25.436Z,10.90
2022-08-18T12:27:54.184Z,10.10
2022-08-18T12:30:21.540Z,8.60
2022-08-18T12:32:49.931Z,10.50
2022-08-18T12:35:21.966Z,10.70
2022-08-18T12:38:12.987Z,9.70
2022-08-18T12:40:37.191Z,8.60
2022-08-18T12:43:05.864Z,7.90
2022-08-18T12:45:32.959Z,7.30
2022-08-18T12:50:54.711Z,4.70
2022-08-18T12:53:30.230Z,4.90
2022-08-18T12:56:22.925Z,4.40
2022-08-18T12:58:53.125Z,5.10
2022-08-18T13:01:20.307Z,5.50
2022-08-18T13:04:11.388Z,5.90
2022-08-18T13:06:46.948Z,5.60
2022-08-18T13:09:42.944Z,6.50
2022-08-18T13:12:16.294Z,6.00
2022-08-18T13:14:43.902Z,7.00
2022-08-18T13:17:29.684Z,6.70
2022-08-18T13:20:00.613Z,7.50
2022-08-18T13:22:32.844Z,7.10
2022-08-18T13:25:03.828Z,7.10
2022-08-18T13:27:35.270Z,7.20
2022-08-18T13:30:29.452Z,9.90
2022-08-18T13:32:58.823Z,13.00
2022-08-18T13:35:30.010Z,12.00
2022-08-18T13:38:14.317Z,9.80
2022-08-18T13:43:17.390Z,10.00
2022-08-18T13:45:52.687Z,8.40
2022-08-18T13:48:21.313Z,8.80
2022-08-18T13:50:52.748Z,10.70
2022-08-18T13:53:20.127Z,10.20
2022-08-18T13:55:47.586Z,9.20
2022-08-18T13:58:20.253Z,9.60
2022-08-18T14:01:01.857Z,10.20
2022-08-18T14:03:47.674Z,9.80
2022-08-18T14:06:22.536Z,10.90
2022-08-18T14:08:52.003Z,10.10
2022-08-18T14:11:19.148Z,10.10
2022-08-18T14:13:47.117Z,10.40
2022-08-18T14:16:19.067Z,9.80
2022-08-18T14:19:10.437Z,10.60
2022-08-18T14:22:01.929Z,9.90
2022-08-18T14:24:49.315Z,10.40
2022-08-18T14:27:18.084Z,10.60
2022-08-18T14:29:48.015Z,10.40
2022-08-18T14:32:18.059Z,10.90
2022-08-18T14:34:50.836Z,10.00
2022-08-18T14:37:18.343Z,8.70
2022-08-18T14:39:48.087Z,9.50
2022-08-18T14:42:32.793Z,9.80
2022-08-18T14:45:26.697Z,9.40
2022-08-18T14:47:59.955Z,9.80
2022-08-18T14:50:26.932Z,9.80
2022-08-18T14:52:53.878Z,9.30
2022-08-18T14:55:20.930Z,9.30
2022-08-18T14:57:50.263Z,9.20
2022-08-18T15:00:20.884Z,9.40
2022-08-18T15:02:49.446Z,9.40
2022-08-18T15:05:19.502Z,9.60
2022-08-18T15:07:51.429Z,9.20
2022-08-18T15:10:19.950Z,10.20
2022-08-18T15:12:51.647Z,10.00
2022-08-18T15:15:19.139Z,9.20
2022-08-18T15:17:52.558Z,10.20
2022-08-18T15:20:28.886Z,9.70
2022-08-18T15:23:24.760Z,9.70
2022-08-18T15:25:55.112Z,9.40
2022-08-18T15:28:25.314Z,8.70
2022-08-18T15:31:16.553Z,7.00
2022-08-18T15:33:39.464Z,7.40
2022-08-18T15:36:09.941Z,6.80
2022-08-18T15:38:37.355Z,7.00
2022-08-18T15:41:06.259Z,6.70
2022-08-18T15:43:45.908Z,7.20
2022-08-18T15:46:16.601Z,6.60
2022-08-18T15:48:43.817Z,6.50
2022-08-18T15:51:12.008Z,6.00
2022-08-18T15:53:44.563Z,6.10
2022-08-18T15:56:21.026Z,6.30
2022-08-18T15:58:49.124Z,5.80
2022-08-18T16:01:30.606Z,5.90
2022-08-18T16:04:01.491Z,5.20
2022-08-18T16:06:32.499Z,5.80
2022-08-18T16:08:59.840Z,6.00
2022-08-18T16:11:29.143Z,5.20
2022-08-18T16:13:59.014Z,6.00
2022-08-18T16:16:29.123Z,6.00
2022-08-18T16:19:08.033Z,5.70
2022-08-18T16:21:38.664Z,5.50
2022-08-18T16:24:05.821Z,6.00
2022-08-18T16:26:32.873Z,5.60
2022-08-18T16:29:01.799Z,5.30
2022-08-18T16:31:29.642Z,5.30
2022-08-18T16:33:57.410Z,5.30
2022-08-18T16:36:25.826Z,5.70
2022-08-18T16:38:53.771Z,5.70
2022-08-18T16:41:23.075Z,6.40
2022-08-18T16:43:50.024Z,6.10
2022-08-18T16:46:21.513Z,5.90
2022-08-18T16:48:49.599Z,5.80
2022-08-18T16:51:17.561Z,6.10
2022-08-18T16:53:46.322Z,6.40
2022-08-18T16:56:18.899Z,6.30
2022-08-18T16:59:05.453Z,7.10
2022-08-18T17:01:53.533Z,6.40
2022-08-18T17:04:22.834Z,6.40
2022-08-18T17:06:50.322Z,6.70
2022-08-18T17:09:18.296Z,7.20
2022-08-18T17:11:51.255Z,7.70
2022-08-18T17:14:19.867Z,8.00
2022-08-18T17:16:48.490Z,7.40
2022-08-18T17:19:15.448Z,8.40
2022-08-18T17:21:42.349Z,8.50
2022-08-18T17:24:10.527Z,8.90
2022-08-18T17:27:05.912Z,8.20
2022-08-18T17:29:53.569Z,9.10
2022-08-18T17:32:25.122Z,8.60
2022-08-18T17:35:04.679Z,8.00
2022-08-18T17:37:31.757Z,8.00
2022-08-18T17:40:05.020Z,8.00
2022-08-18T17:42:33.781Z,7.70
2022-08-18T17:45:21.632Z,8.00
2022-08-18T17:48:11.804Z,8.60
2022-08-18T17:51:09.095Z,8.00
2022-08-18T17:53:38.973Z,9.20
2022-08-18T17:56:35.086Z,8.80
2022-08-18T17:59:07.417Z,9.20
2022-08-18T18:02:24.554Z,8.40
2022-08-18T18:04:59.545Z,8.80
2022-08-18T18:07:32.910Z,9.30
2022-08-18T18:10:03.607Z,9.30
2022-08-18T18:12:31.825Z,8.80
2022-08-18T18:14:59.385Z,9.00
2022-08-18T18:17:30.320Z,9.30
2022-08-18T18:20:22.148Z,9.10
2022-08-18T18:22:49.098Z,9.40
2022-08-18T18:25:34.563Z,9.40
2022-08-18T18:28:01.841Z,9.80
2022-08-18T18:30:32.990Z,9.60
2022-08-18T18:33:02.898Z,9.70
2022-08-18T18:35:54.403Z,10.10
2022-08-18T18:38:30.292Z,9.40
2022-08-18T18:41:20.690Z,9.60
2022-08-18T18:43:49.182Z,8.60
2022-08-18T18:46:27.494Z,9.10
2022-08-18T18:49:19.330Z,8.40
2022-08-18T18:51:47.612Z,9.00
2022-08-18T18:54:33.085Z,9.40
2022-08-18T18:57:00.356Z,9.60
2022-08-18T18:59:46.396Z,9.40
2022-08-18T19:02:41.568Z,10.20
2022-08-18T19:05:11.386Z,9.60
2022-08-18T19:07:48.983Z,10.30
2022-08-18T19:10:37.734Z,11.30
2022-08-18T19:13:32.458Z,10.10
2022-08-18T19:16:06.500Z,9.70
2022-08-18T19:18:41.285Z,10.80
2022-08-18T19:22:04.396Z,10.80
2022-08-18T19:24:03.306Z,10.80
2022-08-18T19:26:39.976Z,10.70
2022-08-18T19:29:14.108Z,10.00
2022-08-18T19:31:49.918Z,10.10
2022-08-18T19:34:31.204Z,10.60
2022-08-18T19:37:13.822Z,10.10
2022-08-18T19:39:54.739Z,10.00
2022-08-18T19:42:35.284Z,9.80
2022-08-18T19:45:17.000Z,9.60
2022-08-18T19:48:07.156Z,10.30
2022-08-18T19:50:35.808Z,10.90
2022-08-18T19:53:22.880Z,9.80
2022-08-18T19:56:14.541Z,9.90
2022-08-18T19:59:15.596Z,10.30
2022-08-18T20:01:55.376Z,10.40
2022-08-18T20:04:33.722Z,10.90
2022-08-18T20:07:28.527Z,10.30
2022-08-18T20:10:01.448Z,10.30
2022-08-18T20:13:06.151Z,10.60
2022-08-18T20:15:33.139Z,10.60
2022-08-18T20:18:03.077Z,11.10
2022-08-18T20:20:32.010Z,10.50
2022-08-18T20:22:59.553Z,10.70
2022-08-18T20:25:45.251Z,10.80
2022-08-18T20:28:13.015Z,10.10
2022-08-18T20:30:40.046Z,11.60
2022-08-18T20:33:19.809Z,10.50
2022-08-18T20:36:10.716Z,11.00
2022-08-18T20:38:37.660Z,10.80
2022-08-18T20:41:23.352Z,11.00
2022-08-18T20:43:59.307Z,11.70
2022-08-18T20:46:43.417Z,10.50
2022-08-18T20:49:42.857Z,10.60
2022-08-18T20:52:35.859Z,10.20
2022-08-18T20:55:21.208Z,11.00
2022-08-18T20:57:51.277Z,12.00
2022-08-18T21:00:27.341Z,11.20
2022-08-18T21:02:59.265Z,11.70
2022-08-18T21:05:34.461Z,11.60
2022-08-18T21:08:13.403Z,11.80
2022-08-18T21:10:57.483Z,11.80
2022-08-18T21:13:31.250Z,11.00
2022-08-18T21:15:58.707Z,11.30
2022-08-18T21:18:26.471Z,11.70
2022-08-18T21:20:55.446Z,11.10
2022-08-18T21:23:27.127Z,11.60
2022-08-18T21:25:57.970Z,10.40
2022-08-18T21:31:30.813Z,10.80
2022-08-18T21:34:10.220Z,11.00
2022-08-18T21:36:39.926Z,11.20
2022-08-18T21:39:09.600Z,10.80
2022-08-18T21:41:46.521Z,11.90
2022-08-18T21:44:44.696Z,10.50
2022-08-18T21:47:38.062Z,10.60
2022-08-18T21:50:16.240Z,10.30
2022-08-18T21:53:12.440Z,11.10
2022-08-18T21:55:42.563Z,11.30
2022-08-18T21:58:18.521Z,10.70
2022-08-18T22:01:07.571Z,10.50
2022-08-18T22:03:35.153Z,10.20
2022-08-18T22:06:21.120Z,10.80
2022-08-18T22:09:28.517Z,10.40
2022-08-18T22:12:42.367Z,10.50
2022-08-18T22:15:27.647Z,10.30
2022-08-18T22:17:57.670Z,10.50
2022-08-18T22:20:36.900Z,11.20
2022-08-18T22:23:28.630Z,11.60
2022-08-18T22:26:12.608Z,10.70
2022-08-18T22:28:57.654Z,10.80
2022-08-18T22:31:26.038Z,10.50
2022-08-18T22:33:55.857Z,10.30
2022-08-18T22:36:27.773Z,10.10
2022-08-18T22:38:54.769Z,10.40
2022-08-18T22:41:21.816Z,10.00
2022-08-18T22:43:54.723Z,9.90
2022-08-18T22:46:24.915Z,10.30
2022-08-18T22:48:52.865Z,9.80
2022-08-18T22:51:21.871Z,9.40
2022-08-18T22:53:48.842Z,10.00
2022-08-18T22:56:15.792Z,9.40
2022-08-18T22:58:49.805Z,9.20
2022-08-18T23:01:17.877Z,9.60
2022-08-18T23:03:44.913Z,9.50
2022-08-18T23:06:11.983Z,10.30
2022-08-18T23:08:54.425Z,8.90
2022-08-18T23:11:24.414Z,9.90
2022-08-18T23:13:51.365Z,10.30
2022-08-18T23:16:31.302Z,9.40
2022-08-18T23:19:03.086Z,10.30
2022-08-18T23:21:34.466Z,9.30
2022-08-18T23:24:07.217Z,8.70
2022-08-18T23:26:34.570Z,8.70
2022-08-18T23:29:02.371Z,9.30
2022-08-18T23:31:30.614Z,9.00
2022-08-18T23:33:59.777Z,9.20
2022-08-18T23:36:30.656Z,8.50
2022-08-18T23:38:57.704Z,8.20
2022-08-18T23:41:24.651Z,8.60
2022-08-18T23:43:51.594Z,9.60
2022-08-18T23:46:22.573Z,9.60
2022-08-18T23:48:50.878Z,8.70
2022-08-18T23:51:29.651Z,9.10
2022-08-18T23:53:59.211Z,8.90
2022-08-18T23:56:31.124Z,9.50
2022-08-18T23:58:58.376Z,10.00
